Time;durP1;ratioP1;P1;durP2;ratioP2;P2;SDS_P1;SDS_P2;PMS_P1;PMS_P2;Temp;Humidity;BMP_temperature;BMP_pressure;BME280_temperature;BME280_humidity;BME280_pressure;Samples;Min_cycle;Max_cycle;Signal;HPM_P1;HPM_P2
2023/06/15 00:02:49;;;;;;;;;;;;;;;14.30;100.00;95519.19;10508709;28;1981;-73
2023/06/15 00:07:52;;;;;;;;;;;;;;;14.38;100.00;95518.50;10509751;28;1930;-73
2023/06/15 00:12:54;;;;;;;;;;;;;;;14.19;100.00;95517.81;10497501;28;2225;-73
2023/06/15 00:17:57;;;;;;;;;;;;;;;14.18;100.00;95521.59;10497783;28;1961;-73
2023/06/15 00:23:00;;;;;;;;;;;;;;;14.06;100.00;95517.53;10500178;28;1935;-72
2023/06/15 00:28:02;;;;;;;;;;;;;;;14.00;100.00;95526.84;10499938;28;2368;-73
2023/06/15 00:33:04;;;;;;;;;;;;;;;13.98;100.00;95520.94;10503616;28;1979;-73
2023/06/15 00:38:07;;;;;;;;;;;;;;;14.03;100.00;95534.34;10502449;28;2021;-72
2023/06/15 00:43:09;;;;;;;;;;;;;;;14.03;100.00;95531.63;10499179;28;4616;-73
2023/06/15 00:48:12;;;;;;;;;;;;;;;13.93;100.00;95537.25;10500773;28;1969;-72
2023/06/15 00:53:14;;;;;;;;;;;;;;;13.83;100.00;95548.25;10504030;28;2122;-73
2023/06/15 00:58:17;;;;;;;;;;;;;;;13.74;100.00;95550.03;10508081;28;1989;-73
2023/06/15 01:03:20;;;;;;;;;;;;;;;13.69;100.00;95545.53;10502075;28;1928;-73
2023/06/15 01:08:24;;;;;;;;;;;;;;;13.65;100.00;95535.63;10500374;28;1976;-72
2023/06/15 01:13:26;;;;;;;;;;;;;;;13.66;100.00;95539.94;10506512;28;2062;-73
2023/06/15 01:18:29;;;;;;;;;;;;;;;13.63;100.00;95538.63;10502843;28;1956;-71
2023/06/15 01:23:32;;;;;;;;;;;;;;;13.52;100.00;95535.31;10507484;28;2411;-73
2023/06/15 01:28:34;;;;;;;;;;;;;;;13.62;100.00;95528.94;10500287;28;2218;-73
2023/06/15 01:33:36;;;;;;;;;;;;;;;13.63;100.00;95527.84;10502339;28;1871;-73
2023/06/15 01:38:39;;;;;;;;;;;;;;;13.65;100.00;95527.53;10497722;28;2005;-73
2023/06/15 01:43:41;;;;;;;;;;;;;;;13.56;100.00;95532.81;10497045;28;4477;-71
2023/06/15 01:48:44;;;;;;;;;;;;;;;13.53;100.00;95523.41;10503043;28;1964;-72
2023/06/15 01:53:47;;;;;;;;;;;;;;;13.51;100.00;95517.50;10508971;28;1979;-72
2023/06/15 01:58:50;;;;;;;;;;;;;;;13.49;100.00;95519.72;10506216;28;2035;-72
2023/06/15 02:03:54;;;;;;;;;;;;;;;13.46;100.00;95531.09;10504136;28;2023;-72
2023/06/15 02:08:57;;;;;;;;;;;;;;;13.50;100.00;95526.72;10508062;28;1901;-72
2023/06/15 02:14:01;;;;;;;;;;;;;;;13.55;100.00;95527.69;10510095;28;2008;-72
2023/06/15 02:19:04;;;;;;;;;;;;;;;13.62;100.00;95533.53;10505484;28;2253;-72
2023/06/15 02:24:08;;;;;;;;;;;;;;;13.61;100.00;95537.31;10508058;28;2012;-72
2023/06/15 02:29:10;;;;;;;;;;;;;;;13.59;100.00;95545.72;10511428;28;2199;-72
2023/06/15 02:34:13;;;;;;;;;;;;;;;13.60;100.00;95543.81;10508861;28;1879;-72
2023/06/15 02:39:17;;;;;;;;;;;;;;;13.57;100.00;95536.31;10508972;28;2000;-72
2023/06/15 02:44:21;;;;;;;;;;;;;;;13.55;100.00;95539.34;10506918;28;4629;-72
2023/06/15 02:49:23;;;;;;;;;;;;;;;13.60;100.00;95539.22;10503700;28;1848;-72
2023/06/15 02:54:27;;;;;;;;;;;;;;;13.60;100.00;95543.81;10505167;28;1983;-72
2023/06/15 02:59:30;;;;;;;;;;;;;;;13.57;100.00;95541.72;10522499;28;1961;-73
2023/06/15 03:04:37;;;;;;;;;;;;;;;13.49;100.00;95545.91;10501651;28;1963;-72
2023/06/15 03:09:40;;;;;;;;;;;;;;;13.42;100.00;95546.31;10507605;28;2046;-73
2023/06/15 03:14:44;;;;;;;;;;;;;;;13.35;100.00;95551.25;10513883;28;2353;-71
2023/06/15 03:19:47;;;;;;;;;;;;;;;13.37;100.00;95559.88;10507893;28;1955;-72
2023/06/15 03:24:50;;;;;;;;;;;;;;;13.39;100.00;95563.09;10497543;28;2022;-72
2023/06/15 03:29:54;;;;;;;;;;;;;;;13.43;100.00;95564.09;10507744;28;2206;-72
2023/06/15 03:34:57;;;;;;;;;;;;;;;13.54;100.00;95570.09;10500768;28;2059;-72
2023/06/15 03:40:00;;;;;;;;;;;;;;;13.53;100.00;95563.13;10502014;28;1991;-72
2023/06/15 03:45:02;;;;;;;;;;;;;;;13.56;100.00;95572.53;10500921;28;2048;-72
2023/06/15 03:50:06;;;;;;;;;;;;;;;13.58;100.00;95568.44;10506593;28;1906;-72
2023/06/15 03:55:12;;;;;;;;;;;;;;;13.68;100.00;95572.88;10506648;28;1956;-71
2023/06/15 04:00:15;;;;;;;;;;;;;;;13.78;100.00;95580.75;10508120;28;1910;-71
2023/06/15 04:05:17;;;;;;;;;;;;;;;13.93;100.00;95585.91;10510889;28;1991;-71
2023/06/15 04:10:21;;;;;;;;;;;;;;;14.06;100.00;95587.81;10498265;28;2074;-71
2023/06/15 04:15:23;;;;;;;;;;;;;;;14.25;100.00;95595.00;10497141;28;2502;-72
2023/06/15 04:20:27;;;;;;;;;;;;;;;14.59;100.00;95595.41;10503481;28;1922;-73
2023/06/15 04:25:29;;;;;;;;;;;;;;;14.75;100.00;95608.59;10492026;28;2024;-73
2023/06/15 04:30:32;;;;;;;;;;;;;;;14.99;100.00;95602.94;10500198;28;1952;-72
2023/06/15 04:35:35;;;;;;;;;;;;;;;15.11;100.00;95609.41;10498113;28;2200;-72
2023/06/15 04:40:38;;;;;;;;;;;;;;;15.00;100.00;95613.44;10496819;28;1906;-72
2023/06/15 04:45:40;;;;;;;;;;;;;;;15.09;100.00;95613.53;10500063;28;1887;-72
2023/06/15 04:50:47;;;;;;;;;;;;;;;14.95;100.00;95619.00;10501439;28;2065;-72
2023/06/15 04:55:50;;;;;;;;;;;;;;;15.08;100.00;95623.56;10497539;28;1958;-71
2023/06/15 05:00:52;;;;;;;;;;;;;;;15.10;100.00;95631.38;10508748;28;1918;-72
2023/06/15 05:05:54;;;;;;;;;;;;;;;15.22;100.00;95633.56;10502691;28;1913;-71
2023/06/15 05:10:57;;;;;;;;;;;;;;;15.41;100.00;95628.75;10502213;28;2267;-71
2023/06/15 05:15:59;;;;;;;;;;;;;;;15.56;100.00;95630.28;10492119;28;2033;-73
2023/06/15 05:21:02;;;;;;;;;;;;;;;16.04;100.00;95627.75;10511843;28;2092;-73
2023/06/15 05:26:04;;;;;;;;;;;;;;;16.25;100.00;95632.63;10510099;28;1993;-74
2023/06/15 05:31:26;;;;;;;;;;;;;;;16.31;100.00;95642.22;10513099;28;1935;-73
2023/06/15 05:36:30;;;;;;;;;;;;;;;16.29;100.00;95647.16;10508759;28;1901;-74
2023/06/15 05:41:52;;;;;;;;;;;;;;;16.32;100.00;95643.81;10502984;28;4552;-74
2023/06/15 05:46:55;;;;;;;;;;;;;;;16.47;100.00;95651.53;10507767;28;1995;-73
2023/06/15 05:51:57;;;;;;;;;;;;;;;16.68;100.00;95652.56;10507638;28;1907;-72
2023/06/15 05:57:00;;;;;;;;;;;;;;;16.83;100.00;95653.28;10507900;28;1935;-73
2023/06/15 06:02:02;;;;;;;;;;;;;;;17.01;100.00;95660.34;10508766;28;2015;-73
2023/06/15 06:07:06;;;;;;;;;;;;;;;17.61;100.00;95662.28;10506185;28;2656;-73
2023/06/15 06:12:09;;;;;;;;;;;;;;;17.82;100.00;95665.97;10514283;28;2025;-73
2023/06/15 06:17:11;;;;;;;;;;;;;;;17.87;100.00;95669.63;10504663;28;1951;-73
2023/06/15 06:22:32;;;;;;;;;;;;;;;18.20;100.00;95678.88;10506160;28;2032;-73
2023/06/15 06:27:35;;;;;;;;;;;;;;;18.72;100.00;95670.53;10509618;28;2046;-74
2023/06/15 06:32:37;;;;;;;;;;;;;;;19.16;100.00;95676.53;10501781;28;2014;-72
2023/06/15 06:37:39;;;;;;;;;;;;;;;19.56;100.00;95676.06;10506814;28;2038;-72
2023/06/15 06:42:42;;;;;;;;;;;;;;;19.83;100.00;95678.28;10508713;28;2030;-73
2023/06/15 06:47:44;;;;;;;;;;;;;;;19.79;100.00;95671.13;10504444;28;1979;-76
2023/06/15 06:52:46;;;;;;;;;;;;;;;20.19;98.97;95668.63;10503642;28;1939;-79
2023/06/15 06:57:49;;;;;;;;;;;;;;;20.81;92.47;95670.34;10503113;28;1983;-80
2023/06/15 07:02:51;;;;;;;;;;;;;;;20.79;92.67;95670.66;10503287;28;2305;-82
2023/06/15 07:07:54;;;;;;;;;;;;;;;20.31;92.77;95671.38;10495128;28;1924;-80
2023/06/15 07:12:56;;;;;;;;;;;;;;;20.67;94.85;95675.31;10499536;28;1948;-80
2023/06/15 07:17:59;;;;;;;;;;;;;;;21.34;85.50;95668.47;10503843;28;2078;-87
2023/06/15 07:23:01;;;;;;;;;;;;;;;21.21;89.70;95661.41;10515815;28;2082;-88
2023/06/15 07:28:04;;;;;;;;;;;;;;;20.66;89.87;95665.53;10502093;28;2222;-76
2023/06/15 07:33:06;;;;;;;;;;;;;;;21.17;89.22;95668.69;10495515;28;2003;-74
2023/06/15 07:38:09;;;;;;;;;;;;;;;20.92;92.66;95663.25;10503646;28;1970;-74
2023/06/15 07:43:11;;;;;;;;;;;;;;;20.11;90.59;95659.41;10496961;28;4743;-75
2023/06/15 07:48:13;;;;;;;;;;;;;;;19.80;93.62;95667.25;10503171;28;2050;-73
2023/06/15 07:53:16;;;;;;;;;;;;;;;19.47;100.00;95670.72;10500413;28;1939;-75
2023/06/15 07:58:18;;;;;;;;;;;;;;;19.79;97.40;95663.72;10502667;28;2291;-74
2023/06/15 08:03:21;;;;;;;;;;;;;;;20.15;96.09;95667.69;10504922;28;2023;-77
2023/06/15 08:08:23;;;;;;;;;;;;;;;20.20;95.04;95672.94;10501299;28;2105;-74
2023/06/15 08:13:26;;;;;;;;;;;;;;;20.13;87.65;95669.97;10503903;28;1991;-76
2023/06/15 08:18:28;;;;;;;;;;;;;;;19.81;91.35;95677.81;10483858;28;1986;-80
2023/06/15 08:23:30;;;;;;;;;;;;;;;21.26;89.37;95672.91;10499014;28;1926;-81
2023/06/15 08:28:33;;;;;;;;;;;;;;;20.92;87.52;95679.66;10493655;28;2014;-86
2023/06/15 08:33:53;;;;;;;;;;;;;;;20.60;92.41;95675.09;10504081;28;1871;-78
2023/06/15 08:38:55;;;;;;;;;;;;;;;21.22;89.19;95676.69;10495602;28;2035;-72
2023/06/15 08:43:58;;;;;;;;;;;;;;;21.33;88.08;95668.84;10491540;28;1975;-72
2023/06/15 08:49:00;;;;;;;;;;;;;;;21.45;77.01;95669.59;10495869;28;1988;-75
2023/06/15 08:54:02;;;;;;;;;;;;;;;21.91;71.54;95670.13;10501030;28;2301;-78
2023/06/15 08:59:05;;;;;;;;;;;;;;;22.20;73.59;95676.41;10497406;28;1917;-75
2023/06/15 09:04:07;;;;;;;;;;;;;;;22.58;73.56;95664.88;10498707;28;2314;-76
2023/06/15 09:09:10;;;;;;;;;;;;;;;21.49;72.45;95675.97;10497082;28;1920;-75
2023/06/15 09:14:12;;;;;;;;;;;;;;;22.24;75.68;95664.41;10504917;28;1870;-76
2023/06/15 09:19:16;;;;;;;;;;;;;;;21.95;71.68;95671.03;10519500;28;1930;-77
2023/06/15 09:24:19;;;;;;;;;;;;;;;21.10;70.12;95671.22;10501309;28;1918;-77
2023/06/15 09:29:21;;;;;;;;;;;;;;;21.40;68.18;95667.09;10510809;28;1500;-76
2023/06/15 09:34:23;;;;;;;;;;;;;;;22.29;66.11;95653.19;10502883;28;1948;-76
2023/06/15 09:39:26;;;;;;;;;;;;;;;22.84;62.21;95656.13;10493552;28;2125;-77
2023/06/15 09:44:28;;;;;;;;;;;;;;;22.95;56.73;95646.25;10502071;28;1962;-77
2023/06/15 09:49:31;;;;;;;;;;;;;;;22.84;54.15;95650.63;10498787;28;2216;-77
2023/06/15 09:54:34;;;;;;;;;;;;;;;24.23;49.19;95646.19;10494248;28;2013;-77
2023/06/15 09:59:36;;;;;;;;;;;;;;;24.58;50.75;95647.25;10488078;28;2028;-76
2023/06/15 10:04:40;;;;;;;;;;;;;;;24.35;49.56;95644.47;10493429;28;1952;-79
2023/06/15 10:09:44;;;;;;;;;;;;;;;23.73;52.45;95650.75;10504828;28;1910;-76
2023/06/15 10:14:46;;;;;;;;;;;;;;;22.51;60.29;95653.75;10504904;28;1903;-75
2023/06/15 10:19:49;;;;;;;;;;;;;;;21.81;69.54;95649.53;10504662;28;2059;-74
2023/06/15 10:24:51;;;;;;;;;;;;;;;21.20;70.92;95657.91;10507794;28;1929;-77
2023/06/15 10:29:53;;;;;;;;;;;;;;;21.30;72.53;95657.44;10507381;28;1957;-83
2023/06/15 10:34:56;;;;;;;;;;;;;;;21.23;74.38;95650.94;10496713;28;1996;-81
2023/06/15 10:39:58;;;;;;;;;;;;;;;21.46;76.16;95649.31;10499824;28;2092;-81
2023/06/15 10:45:01;;;;;;;;;;;;;;;21.80;72.37;95644.41;10505594;28;2721;-78
2023/06/15 10:50:03;;;;;;;;;;;;;;;21.86;72.02;95643.00;10501934;28;1910;-80
2023/06/15 10:55:06;;;;;;;;;;;;;;;22.14;65.70;95648.50;10505174;28;2117;-78
2023/06/15 11:00:10;;;;;;;;;;;;;;;22.05;64.46;95645.09;10496293;28;1912;-81
2023/06/15 11:05:14;;;;;;;;;;;;;;;22.29;59.52;95647.72;10504277;28;1971;-78
2023/06/15 11:10:17;;;;;;;;;;;;;;;23.29;55.98;95639.19;10510477;28;1933;-85
2023/06/15 11:15:20;;;;;;;;;;;;;;;24.90;50.81;95631.28;10516727;28;1948;-81
2023/06/15 11:20:22;;;;;;;;;;;;;;;25.20;47.49;95629.41;10512050;28;2136;-84
2023/06/15 11:25:28;;;;;;;;;;;;;;;25.70;42.78;95624.53;10506692;28;1962;-80
2023/06/15 11:30:30;;;;;;;;;;;;;;;25.89;41.65;95623.63;10501809;28;1917;-81
2023/06/15 11:35:36;;;;;;;;;;;;;;;25.78;40.68;95619.97;10504264;28;2074;-77
2023/06/15 11:40:38;;;;;;;;;;;;;;;23.57;43.71;95621.75;10501161;28;4475;-82
2023/06/15 11:45:40;;;;;;;;;;;;;;;23.98;45.13;95621.03;10500204;28;1979;-77
2023/06/15 11:50:43;;;;;;;;;;;;;;;24.03;45.12;95625.44;10498360;28;1875;-83
2023/06/15 11:55:45;;;;;;;;;;;;;;;23.40;48.62;95631.97;10521939;28;1843;-82
2023/06/15 12:00:48;;;;;;;;;;;;;;;22.53;54.72;95629.56;10504750;28;1894;-79
2023/06/15 12:05:50;;;;;;;;;;;;;;;22.29;56.50;95641.47;10493231;28;1918;-78
2023/06/15 12:10:53;;;;;;;;;;;;;;;22.41;55.68;95626.91;10499337;28;2008;-78
2023/06/15 12:15:55;;;;;;;;;;;;;;;22.64;54.63;95625.91;10504373;28;1888;-76
2023/06/15 12:20:57;;;;;;;;;;;;;;;22.90;53.41;95630.06;10492362;28;1956;-77
2023/06/15 12:26:00;;;;;;;;;;;;;;;23.06;52.35;95619.88;10491979;28;1903;-76
2023/06/15 12:31:03;;;;;;;;;;;;;;;23.69;49.15;95616.94;10507427;28;1998;-78
2023/06/15 12:36:06;;;;;;;;;;;;;;;22.63;50.84;95623.53;10501246;28;1896;-78
2023/06/15 12:41:09;;;;;;;;;;;;;;;23.41;48.38;95608.06;10504389;28;4550;-79
2023/06/15 12:46:11;;;;;;;;;;;;;;;23.07;46.14;95612.44;10501100;28;2097;-78
2023/06/15 12:51:14;;;;;;;;;;;;;;;23.46;45.70;95605.06;10501928;28;2011;-77
2023/06/15 12:56:16;;;;;;;;;;;;;;;23.75;46.56;95598.25;10504578;28;1955;-77
2023/06/15 13:01:19;;;;;;;;;;;;;;;23.78;47.19;95602.19;10511099;28;1950;-77
2023/06/15 13:06:21;;;;;;;;;;;;;;;24.14;43.70;95595.44;10504763;28;2117;-77
2023/06/15 13:11:24;;;;;;;;;;;;;;;23.36;39.86;95591.94;10508941;28;1913;-78
2023/06/15 13:16:26;;;;;;;;;;;;;;;23.57;40.54;95589.63;10502196;28;2053;-77
2023/06/15 13:21:29;;;;;;;;;;;;;;;22.99;40.01;95580.56;10494051;28;2197;-76
2023/06/15 13:26:31;;;;;;;;;;;;;;;23.82;39.66;95578.38;10498850;28;1973;-76
2023/06/15 13:31:34;;;;;;;;;;;;;;;24.93;36.18;95570.03;10496617;28;1922;-75
2023/06/15 13:36:38;;;;;;;;;;;;;;;25.57;33.80;95568.16;10494908;28;1942;-76
2023/06/15 13:41:40;;;;;;;;;;;;;;;25.53;34.25;95570.09;10508349;28;4437;-76
2023/06/15 13:46:43;;;;;;;;;;;;;;;24.37;37.63;95570.75;10501286;28;1941;-75
2023/06/15 13:51:45;;;;;;;;;;;;;;;24.68;38.03;95569.66;10516928;28;1969;-76
2023/06/15 13:56:48;;;;;;;;;;;;;;;25.04;37.24;95574.56;10505245;28;2074;-75
2023/06/15 14:01:50;;;;;;;;;;;;;;;25.82;35.43;95561.00;10511815;28;2025;-74
2023/06/15 14:06:52;;;;;;;;;;;;;;;26.34;35.89;95558.38;10501155;28;2015;-77
2023/06/15 14:11:58;;;;;;;;;;;;;;;25.98;33.41;95560.00;10504504;28;2051;-75
2023/06/15 14:17:00;;;;;;;;;;;;;;;25.42;35.41;95571.91;10502320;28;2015;-76
2023/06/15 14:22:03;;;;;;;;;;;;;;;24.57;36.64;95566.75;10494211;28;2019;-73
2023/06/15 14:27:05;;;;;;;;;;;;;;;25.58;36.02;95551.28;10507518;28;2011;-78
2023/06/15 14:32:08;;;;;;;;;;;;;;;24.51;40.48;95562.75;10513264;28;2266;-77
2023/06/15 14:37:10;;;;;;;;;;;;;;;25.06;40.69;95568.69;10511972;28;2033;-75
2023/06/15 14:42:13;;;;;;;;;;;;;;;24.96;39.87;95569.31;10511043;28;4556;-76
2023/06/15 14:47:17;;;;;;;;;;;;;;;24.22;42.53;95566.94;10500259;28;1972;-75
2023/06/15 14:52:19;;;;;;;;;;;;;;;23.56;44.08;95555.09;10486633;28;1933;-75
2023/06/15 14:57:22;;;;;;;;;;;;;;;23.61;43.70;95560.34;10499194;28;1962;-74
2023/06/15 15:02:25;;;;;;;;;;;;;;;23.82;42.78;95564.66;10496769;28;1989;-74
2023/06/15 15:07:27;;;;;;;;;;;;;;;23.71;41.61;95562.47;10488656;28;2018;-72
2023/06/15 15:12:32;;;;;;;;;;;;;;;23.81;41.54;95555.63;10499011;28;1898;-75
2023/06/15 15:17:34;;;;;;;;;;;;;;;24.27;39.56;95556.44;10500836;28;1883;-76
2023/06/15 15:22:39;;;;;;;;;;;;;;;25.64;38.24;95543.50;10483771;28;2104;-74
2023/06/15 15:27:42;;;;;;;;;;;;;;;25.28;37.37;95551.31;10495750;28;2391;-72
2023/06/15 15:32:45;;;;;;;;;;;;;;;24.16;39.42;95560.94;10493241;28;2003;-75
2023/06/15 15:37:47;;;;;;;;;;;;;;;23.95;39.73;95553.13;10499821;28;1918;-77
2023/06/15 15:42:50;;;;;;;;;;;;;;;24.25;38.33;95547.78;10500229;28;4577;-78
2023/06/15 15:47:53;;;;;;;;;;;;;;;23.78;39.01;95553.59;10516746;28;1944;-75
2023/06/15 15:52:56;;;;;;;;;;;;;;;24.85;36.97;95549.09;10499690;28;1957;-75
2023/06/15 15:57:59;;;;;;;;;;;;;;;25.22;36.14;95550.06;10494985;28;2007;-76
2023/06/15 16:03:01;;;;;;;;;;;;;;;24.85;36.39;95549.91;10498513;28;2053;-75
2023/06/15 16:08:04;;;;;;;;;;;;;;;25.17;36.43;95547.63;10495436;28;1918;-74
2023/06/15 16:13:06;;;;;;;;;;;;;;;24.26;37.28;95554.06;10495162;28;1943;-75
2023/06/15 16:18:09;;;;;;;;;;;;;;;23.91;38.14;95556.97;10495501;28;2132;-75
2023/06/15 16:23:11;;;;;;;;;;;;;;;24.09;37.74;95549.84;10499889;28;2120;-76
2023/06/15 16:28:14;;;;;;;;;;;;;;;23.74;37.89;95560.97;10503625;28;1907;-78
2023/06/15 16:33:16;;;;;;;;;;;;;;;24.30;36.68;95549.41;10500525;28;1929;-76
2023/06/15 16:38:19;;;;;;;;;;;;;;;24.09;37.28;95544.34;10491282;28;2018;-76
2023/06/15 16:43:21;;;;;;;;;;;;;;;23.92;38.38;95550.31;10497242;28;4541;-76
2023/06/15 16:48:23;;;;;;;;;;;;;;;23.54;38.82;95560.16;10494679;28;2121;-75
2023/06/15 16:53:26;;;;;;;;;;;;;;;23.24;39.61;95559.94;10490761;28;2083;-78
2023/06/15 16:58:28;;;;;;;;;;;;;;;23.20;40.01;95559.84;10496735;28;1987;-76
2023/06/15 17:03:31;;;;;;;;;;;;;;;23.04;40.85;95556.41;10493658;28;2441;-78
2023/06/15 17:08:34;;;;;;;;;;;;;;;23.14;40.12;95557.75;10491018;28;1937;-77
2023/06/15 17:13:37;;;;;;;;;;;;;;;22.92;40.19;95564.75;10509309;28;1930;-71
2023/06/15 17:18:41;;;;;;;;;;;;;;;22.98;40.55;95554.28;10501961;28;2007;-72
2023/06/15 17:23:44;;;;;;;;;;;;;;;23.00;38.82;95563.75;10505764;28;2027;-72
2023/06/15 17:28:47;;;;;;;;;;;;;;;22.90;38.93;95553.31;10505733;28;2085;-77
2023/06/15 17:33:50;;;;;;;;;;;;;;;22.78;39.94;95561.66;10503038;28;1909;-73
2023/06/15 17:38:52;;;;;;;;;;;;;;;22.79;39.76;95574.19;10506914;28;2245;-72
2023/06/15 17:43:55;;;;;;;;;;;;;;;22.63;40.38;95572.25;10505471;28;4545;-73
2023/06/15 17:48:58;;;;;;;;;;;;;;;22.13;41.07;95579.25;10498367;28;1963;-72
2023/06/15 17:54:00;;;;;;;;;;;;;;;21.93;42.38;95576.72;10502301;28;1903;-72
2023/06/15 17:59:03;;;;;;;;;;;;;;;21.66;42.23;95564.69;10501927;28;1947;-72
2023/06/15 18:04:05;;;;;;;;;;;;;;;21.63;43.15;95574.41;10501464;28;2059;-73
2023/06/15 18:09:12;;;;;;;;;;;;;;;21.48;44.20;95578.66;10502589;28;2067;-73
2023/06/15 18:14:15;;;;;;;;;;;;;;;21.37;44.27;95574.03;10505330;28;1898;-72
2023/06/15 18:19:17;;;;;;;;;;;;;;;21.16;43.41;95569.50;10508688;28;2292;-74
2023/06/15 18:24:20;;;;;;;;;;;;;;;21.03;43.79;95579.69;10508121;28;1989;-74
2023/06/15 18:29:23;;;;;;;;;;;;;;;20.93;44.07;95582.91;10501040;28;1924;-72
2023/06/15 18:34:25;;;;;;;;;;;;;;;20.70;44.54;95581.78;10513101;28;1979;-72
2023/06/15 18:39:27;;;;;;;;;;;;;;;20.59;44.70;95588.84;10502124;28;2003;-72
2023/06/15 18:44:30;;;;;;;;;;;;;;;20.42;45.17;95585.19;10505575;28;4473;-73
2023/06/15 18:49:33;;;;;;;;;;;;;;;20.28;46.20;95590.16;10507497;28;1956;-74
2023/06/15 18:54:35;;;;;;;;;;;;;;;20.14;46.81;95589.69;10510336;28;1898;-72
2023/06/15 18:59:37;;;;;;;;;;;;;;;19.98;47.89;95595.81;10511002;28;1956;-73
2023/06/15 19:04:40;;;;;;;;;;;;;;;19.85;48.80;95596.94;10511521;28;1898;-70
2023/06/15 19:09:42;;;;;;;;;;;;;;;19.65;50.11;95598.53;10513139;28;1955;-71
2023/06/15 19:14:44;;;;;;;;;;;;;;;19.42;50.78;95602.75;10509586;28;2229;-73
2023/06/15 19:19:47;;;;;;;;;;;;;;;19.32;51.95;95598.50;10510588;28;1896;-72
2023/06/15 19:24:49;;;;;;;;;;;;;;;19.05;55.44;95601.75;10510969;28;2010;-71
2023/06/15 19:29:52;;;;;;;;;;;;;;;18.89;57.81;95607.81;10512616;28;2097;-72
2023/06/15 19:34:54;;;;;;;;;;;;;;;18.65;60.31;95615.75;10510340;28;1908;-70
2023/06/15 19:39:57;;;;;;;;;;;;;;;18.61;61.87;95607.44;10492046;28;4561;-69
2023/06/15 19:44:59;;;;;;;;;;;;;;;18.56;63.81;95615.78;10510358;28;1943;-71
2023/06/15 19:50:02;;;;;;;;;;;;;;;18.50;63.02;95622.53;10511824;28;1906;-71
2023/06/15 19:55:05;;;;;;;;;;;;;;;18.29;67.73;95627.13;10516526;28;1915;-67
2023/06/15 20:00:07;;;;;;;;;;;;;;;18.04;72.86;95626.88;10504770;28;1969;-68
2023/06/15 20:05:10;;;;;;;;;;;;;;;18.00;71.12;95630.56;10510087;28;1886;-69
2023/06/15 20:10:13;;;;;;;;;;;;;;;17.89;74.21;95629.34;10509652;28;2271;-69
2023/06/15 20:15:16;;;;;;;;;;;;;;;17.73;80.81;95627.13;10507924;28;1883;-70
2023/06/15 20:20:19;;;;;;;;;;;;;;;17.70;85.86;95638.63;10508665;28;1941;-70
2023/06/15 20:25:22;;;;;;;;;;;;;;;17.81;79.01;95645.34;10506199;28;1955;-70
2023/06/15 20:30:25;;;;;;;;;;;;;;;17.82;79.57;95657.81;10507802;28;1896;-70
2023/06/15 20:35:27;;;;;;;;;;;;;;;17.81;80.73;95660.84;10507679;28;1935;-69
2023/06/15 20:40:30;;;;;;;;;;;;;;;17.78;81.94;95667.72;10509173;28;4524;-70
2023/06/15 20:45:32;;;;;;;;;;;;;;;17.74;82.96;95661.31;10508237;28;1991;-71
2023/06/15 20:50:34;;;;;;;;;;;;;;;17.65;85.04;95659.72;10511117;28;1829;-69
2023/06/15 20:55:37;;;;;;;;;;;;;;;17.60;87.23;95652.53;10508210;28;1863;-71
2023/06/15 21:00:39;;;;;;;;;;;;;;;17.42;90.02;95659.88;10490994;28;2017;-69
2023/06/15 21:05:42;;;;;;;;;;;;;;;17.28;92.58;95654.59;10510324;28;2580;-68
2023/06/15 21:10:44;;;;;;;;;;;;;;;17.21;94.41;95653.50;10508349;28;1955;-70
2023/06/15 21:15:46;;;;;;;;;;;;;;;17.23;96.78;95653.97;10496516;28;1856;-68
2023/06/15 21:20:49;;;;;;;;;;;;;;;17.11;99.24;95657.28;10502342;28;1859;-69
2023/06/15 21:25:51;;;;;;;;;;;;;;;17.02;100.00;95662.72;10504455;28;1930;-69
2023/06/15 21:30:54;;;;;;;;;;;;;;;17.01;100.00;95672.00;10510064;28;1839;-71
2023/06/15 21:35:57;;;;;;;;;;;;;;;16.96;100.00;95665.91;10500707;28;1902;-69
2023/06/15 21:41:00;;;;;;;;;;;;;;;16.64;100.00;95667.88;10506995;28;4630;-69
2023/06/15 21:46:02;;;;;;;;;;;;;;;16.56;100.00;95671.38;10506419;28;1922;-69
2023/06/15 21:51:05;;;;;;;;;;;;;;;16.49;100.00;95671.81;10514505;28;1718;-70
2023/06/15 21:56:07;;;;;;;;;;;;;;;16.43;100.00;95673.06;10505286;28;1816;-69
2023/06/15 22:01:10;;;;;;;;;;;;;;;16.20;100.00;95675.03;10506227;28;2469;-70
2023/06/15 22:06:12;;;;;;;;;;;;;;;16.24;100.00;95677.13;10514034;28;1985;-70
2023/06/15 22:11:15;;;;;;;;;;;;;;;16.16;100.00;95684.91;10511455;28;1891;-70
2023/06/15 22:16:18;;;;;;;;;;;;;;;16.13;100.00;95680.09;10506452;28;1923;-70
2023/06/15 22:21:20;;;;;;;;;;;;;;;16.03;100.00;95674.97;10512948;28;1856;-70
2023/06/15 22:26:25;;;;;;;;;;;;;;;15.94;100.00;95676.81;10518163;28;1959;-70
2023/06/15 22:31:29;;;;;;;;;;;;;;;15.94;100.00;95682.22;10510380;28;1855;-70
2023/06/15 22:36:33;;;;;;;;;;;;;;;15.71;100.00;95670.59;10517588;28;1923;-70
2023/06/15 22:41:38;;;;;;;;;;;;;;;15.76;100.00;95672.38;10500557;28;4517;-69
2023/06/15 22:46:41;;;;;;;;;;;;;;;15.49;100.00;95670.56;10507615;28;1927;-69
2023/06/15 22:51:45;;;;;;;;;;;;;;;15.35;100.00;95666.00;10516135;28;1971;-70
2023/06/15 22:56:48;;;;;;;;;;;;;;;15.23;100.00;95662.22;10508717;28;2293;-68
2023/06/15 23:01:51;;;;;;;;;;;;;;;15.17;100.00;95658.03;10506969;28;1894;-69
2023/06/15 23:06:55;;;;;;;;;;;;;;;15.07;100.00;95654.44;10509294;28;1954;-70
2023/06/15 23:11:58;;;;;;;;;;;;;;;14.99;100.00;95655.16;10507199;28;2159;-69
2023/06/15 23:17:01;;;;;;;;;;;;;;;14.97;100.00;95648.47;10514788;28;2370;-71
2023/06/15 23:22:04;;;;;;;;;;;;;;;15.00;100.00;95643.22;10510909;28;2000;-71
2023/06/15 23:27:10;;;;;;;;;;;;;;;14.94;100.00;95638.22;10514446;28;1971;-68
2023/06/15 23:32:13;;;;;;;;;;;;;;;14.88;100.00;95629.41;10510156;28;1990;-67
2023/06/15 23:37:16;;;;;;;;;;;;;;;14.85;100.00;95640.84;10509439;28;1891;-69
2023/06/15 23:42:18;;;;;;;;;;;;;;;14.75;100.00;95624.81;10513097;28;4630;-68
2023/06/15 23:47:21;;;;;;;;;;;;;;;14.64;100.00;95628.88;10501047;28;1919;-68
2023/06/15 23:52:24;;;;;;;;;;;;;;;14.60;100.00;95620.56;10508932;28;2012;-68
2023/06/15 23:57:26;;;;;;;;;;;;;;;14.50;100.00;95621.53;10507845;28;1967;-70
